Nearby METAR Reports

Live Weather Gauges   
Station Dashboard   
KEIK - Erie Muni, Colorado, USA
Distance from station: NW 9mi, 15km
Updated: Sun, 23-Jun-2024 11:30am MDT
Clear
Clear
 Wind from calm
Wind: Calm
Temperature: 93°F, 34°C
Dew Point: 36°F, 2°C
Humidity: 13%
Barometer: 30.10 inHg, 1019.3 hPa
Clouds: Clear
Visibility: 8 miles, 13 km
2024/06/23 17:30 KEIK 231730Z AUTO 00000KT 8SM CLR 34/02 A3010 RMK AO2 T03410018
KBJC - Broomfield/Jeffco, Colorado, USA
Distance from station: W 10mi, 16km
Updated: Sun, 23-Jun-2024 10:45am MDT
Partly cloudy
Partly cloudy
 Wind from ESE
Wind: ESE 5 mph, 7 km/h
Temperature: 90°F, 32°C
Dew Point: 37°F, 3°C
Humidity: 16%
Barometer: 30.17 inHg, 1021.7 hPa
Clouds: Partly cloudy
Visibility: 10 miles, 16 km
Cloud details: Partly cloudy 15000 ft
2024/06/23 16:45 KBJC 231645Z 11004KT 10SM SCT150 32/03 A3017
KDEN - Denver (DIA), Colorado, USA
Distance from station: ESE 16mi, 26km
Updated: Sun, 23-Jun-2024 11:53am MDT
Few Clouds
Few Clouds
 Wind from varies
Wind: varies 6 mph, 9 km/h
Temperature: 93°F, 34°C
Dew Point: 36°F, 2°C
Humidity: 13%
Barometer: 30.14 inHg, 1020.7 hPa
Clouds: Few Clouds
Visibility: 10 miles, 16 km
Cloud details: Few Clouds 10000 ft
Few Clouds 22000 ft
2024/06/23 17:53 KDEN 231753Z VRB05KT 10SM FEW100 FEW220 34/02 A3014 RMK AO2 SLP110 T03390017 10339 20189 58007
 
KBKF - Buckley ANGB/Den, Colorado, USA
Distance from station: SE 17mi, 27km
Updated: Sun, 23-Jun-2024 10:58am MDT
Few Clouds
Few Clouds
 Wind from SSW
Wind: SSW 6 mph, 9 km/h
Temperature: 90°F, 32°C
Dew Point: 32°F, 0°C
Humidity: 13%
Barometer: 30.16 inHg, 1021.3 hPa
Clouds: Few Clouds
Visibility: 10 miles, 16 km
Cloud details: Few Clouds 9000 ft
Few Clouds 20000 ft
2024/06/23 16:58 KBKF 231658Z 21005KT 10SM FEW090 FEW200 32/M00 A3016 RMK AO2A SLP127 T03171001
KBDU - Boulder Muni, Colorado, USA
Distance from station: WNW 18mi, 29km
Updated: Sun, 23-Jun-2024 11:35am MDT
Partly cloudy
Partly cloudy
 Wind from ENE
Wind: ENE 5 mph, 7 km/h
Temperature: 95°F, 35°C
Dew Point: 36°F, 2°C
Humidity: 12%
Barometer: 30.12 inHg, 1020 hPa
Clouds: Partly cloudy
Visibility: 10 miles, 16 km
Cloud details: Partly cloudy 12000 ft
2024/06/23 17:35 KBDU 231735Z AUTO 07004KT 10SM SCT120 35/02 A3012 RMK AO2
KLMO - Longmont/Vbrand, Colorado, USA
Distance from station: NW 21mi, 34km
Updated: Tue, 18-Jun-2024 2:46pm MDT
NOT Current
Clear
Clear
 Wind from SE
Wind: SE 13 mph, 20 km/h, Gust: 18 mph, 30 km/h
Temperature: 75°F, 24°C
Dew Point: 25°F, -4°C
Humidity: 15%
Barometer: 29.98 inHg, 1015.2 hPa
Clouds: Clear
Visibility: 7 miles, 11 km
2024/06/18 20:46 KLMO 182046Z AUTO 14011G16KT 7SM CLR 24/M04 A2998 RMK AO2 T02371038
 
KAPA - Denver/Arapahoe, Colorado, USA
Distance from station: S 25mi, 39km
Updated: Sun, 23-Jun-2024 11:53am MDT
Few Clouds
Few Clouds
 Wind from N
Wind: N 6 mph, 9 km/h
Temperature: 90°F, 32°C
Dew Point: 36°F, 2°C
Humidity: 15%
Barometer: 30.18 inHg, 1022 hPa
Clouds: Few Clouds
Visibility: 10 miles, 16 km
Cloud details: Few Clouds 10000 ft
Few Clouds 20000 ft
2024/06/23 17:53 KAPA 231753Z 01005KT 10SM FEW100 FEW200 32/02 A3018 RMK AO2 SLP136 T03170017 10317 20189 58007
KFNL - Ft Collins/Lovel, Colorado, USA
Distance from station: N 37mi, 60km
Updated: Sun, 23-Jun-2024 11:56am MDT
Clear
Clear
 Wind from S
Wind: S 8 mph, 13 km/h
Temperature: 93°F, 34°C
Dew Point: 45°F, 7°C
Humidity: 19%
Barometer: 30.09 inHg, 1019 hPa
Clouds: Clear
Visibility: 10 miles, 16 km
2024/06/23 17:56 KFNL 231756Z 19007KT 150V230 10SM CLR 34/07 A3009 RMK AO2 SLP114 T03440067 10344 20156 58012
KGXY - Greeley/Weld, Colorado, USA
Distance from station: NNE 38mi, 62km
Updated: Sun, 23-Jun-2024 11:56am MDT
Clear
Clear
 Wind from varies
Wind: varies 6 mph, 9 km/h
Temperature: 93°F, 34°C
Dew Point: 48°F, 9°C
Humidity: 21%
Barometer: 30.08 inHg, 1018.6 hPa
Clouds: Clear
Visibility: 10 miles, 16 km
2024/06/23 17:56 KGXY 231756Z VRB05KT 10SM CLR 34/09 A3008 RMK AO2 SLP130 T03440089 10344 20122 58014
 
KMNH - Monument/Elbert, Colorado, USA
Distance from station: SSE 51mi, 81km
Updated: Sun, 23-Jun-2024 11:35am MDT
Clear
Clear
 Wind from WNW
Wind: WNW 13 mph, 20 km/h
Temperature: 82°F, 28°C
Dew Point: 32°F, 0°C
Humidity: 16%
Barometer: 30.32 inHg, 1026.8 hPa
Clouds: Clear
Visibility: 10 miles, 16 km
2024/06/23 17:35 KMNH 231735Z AUTO 29011KT 10SM CLR 28/00 A3032 RMK AO2
KAFF - USAF Academy/Cos, Colorado, USA
Distance from station: S 66mi, 106km
Updated: Sun, 23-Jun-2024 11:55am MDT
Clear
Clear
 Wind from calm
Wind: Calm
Temperature: 84°F, 29°C
Dew Point: 25°F, -4°C
Humidity: 11%
Barometer: 30.23 inHg, 1023.7 hPa
Clouds: Clear
Visibility: 10 miles, 16 km
2024/06/23 17:55 KAFF 231755Z AUTO 00000KT 10SM CLR 29/M04 A3023 RMK AO2 SLP138 T02911044 10303 20105 57006
K4BM - Wilkerson Pass, Colorado, USA
Distance from station: SSW 68mi, 109km
Updated: Sun, 23-Jun-2024 11:35am MDT
Clear
Clear
 Wind from W
Wind: W 5 mph, 7 km/h
Temperature: 66°F, 19°C
Dew Point: 30°F, -1°C
Humidity: 26%
Barometer: 30.68 inHg, 1038.9 hPa
Clouds: Clear
Visibility: 10 miles, 16 km
2024/06/23 17:35 K4BM 231735Z AUTO 28004KT 10SM CLR 19/M01 A3068 RMK AO2
 
KFLY - Co Spngs Meadow, Colorado, USA
Distance from station: SSE 70mi, 112km
Updated: Sun, 23-Jun-2024 11:35am MDT
Clear
Clear
 Wind from E
Wind: E 7 mph, 11 km/h, Gust: 20 mph, 31 km/h
Temperature: 86°F, 30°C
Dew Point: 32°F, 0°C
Humidity: 14%
Barometer: 30.30 inHg, 1026.1 hPa
Clouds: Clear
Visibility: 10 miles, 16 km
2024/06/23 17:35 KFLY 231735Z AUTO 09006G17KT 10SM CLR 30/00 A3030 RMK AO2 T03001003
KCCU - Red Cliff Pass, Colorado, USA
Distance from station: WSW 72mi, 116km
Updated: Sun, 23-Jun-2024 11:35am MDT
Partly cloudy
Partly cloudy
 Wind from WNW
Wind: WNW 14 mph, 22 km/h, Gust: 22 mph, 35 km/h
Temperature: 61°F, 16°C
Dew Point: 32°F, 0°C
Humidity: 34%
Barometer: 30.74 inHg, 1041 hPa
Clouds: Partly cloudy
Visibility: 10 miles, 16 km
Cloud details: Partly cloudy 6000 ft
2024/06/23 17:35 KCCU 231735Z AUTO 30012G19KT 10SM SCT060 16/00 A3074 RMK AO2
K20V - Kremmling Awos, Colorado, USA
Distance from station: W 77mi, 123km
Updated: Sun, 23-Jun-2024 11:35am MDT
Clear
Clear
 Wind from calm
Wind: Calm
Temperature: 70°F, 21°C
Dew Point: 45°F, 7°C
Humidity: 40%
Barometer: 30.39 inHg, 1029.1 hPa
Clouds: Clear
Visibility: 10 miles, 16 km
2024/06/23 17:35 K20V 231735Z AUTO 00000KT 10SM CLR 21/07 A3039 RMK AO2
 
KCOS - Colorado Springs, Colorado, USA
Distance from station: S 77mi, 124km
Updated: Sun, 23-Jun-2024 11:54am MDT
Few Clouds
Few Clouds
 Wind from N
Wind: N 10 mph, 17 km/h, Gust: 20 mph, 31 km/h
Temperature: 90°F, 32°C
Dew Point: 37°F, 3°C
Humidity: 16%
Barometer: 30.23 inHg, 1023.7 hPa
Clouds: Few Clouds
Visibility: 10 miles, 16 km
Cloud details: Few Clouds 9000 ft
Few Clouds 25000 ft
2024/06/23 17:54 KCOS 231754Z 01009G17KT 330V040 10SM FEW090 FEW250 32/03 A3023 RMK AO2 SLP133 T03170028 10322 20144 58006
KLIC - Limon, Colorado, USA
Distance from station: ESE 81mi, 130km
Updated: Sun, 23-Jun-2024 11:55am MDT
Clear
Clear
 Wind from varies
Wind: varies 5 mph, 7 km/h
Temperature: 91°F, 33°C
Dew Point: 34°F, 1°C
Humidity: 13%
Barometer: 30.14 inHg, 1020.7 hPa
Clouds: Clear
Visibility: 10 miles, 16 km
2024/06/23 17:55 KLIC 231755Z AUTO VRB04KT 10SM CLR 33/01 A3014 RMK AO2 SLP115 T03330011 10344 20117 56005
KFEW - Warren Air Base, Wyoming, USA
Distance from station: N 84mi, 135km
Updated: Sun, 23-Jun-2024 11:55am MDT
Clear
Clear
 Wind from NW
Wind: NW 15 mph, 24 km/h, Gust: 20 mph, 31 km/h
Temperature: 91°F, 33°C
Dew Point: 36°F, 2°C
Humidity: 14%
Barometer: 30.18 inHg, 1022 hPa
Clouds: Clear
Visibility: 10 miles, 16 km
2024/06/23 17:55 KFEW 231755Z AUTO 32013G17KT 10SM CLR 33/02 A3018 RMK AO2 PK WND 28028/15 SLP126 T03250015 10325 20168 57006 $
 
KCYS - Cheyenne, Wyoming, USA
Distance from station: N 85mi, 138km
Updated: Sun, 23-Jun-2024 11:53am MDT
Clear
Clear
 Wind from NNW
Wind: NNW 13 mph, 20 km/h, Gust: 25 mph, 41 km/h
Temperature: 88°F, 31°C
Dew Point: 34°F, 1°C
Humidity: 15%
Barometer: 30.17 inHg, 1021.7 hPa
Clouds: Clear
Visibility: 10 miles, 16 km
2024/06/23 17:53 KCYS 231753Z 33011G22KT 10SM CLR 31/01 A3017 RMK AO2 SLP116 T03110011 10311 20178 57006